sensor_id;sensor_type;location;lat;lon;timestamp;temperature;humidity
13928;DHT22;7036;50.834;4.718;2022-09-13T00:00:38;23.30;58.70
13928;DHT22;7036;50.834;4.718;2022-09-13T00:03:05;23.30;58.70
13928;DHT22;7036;50.834;4.718;2022-09-13T00:05:32;23.30;58.70
13928;DHT22;7036;50.834;4.718;2022-09-13T00:07:59;23.30;58.70
13928;DHT22;7036;50.834;4.718;2022-09-13T00:10:26;23.30;58.70
13928;DHT22;7036;50.834;4.718;2022-09-13T00:12:53;23.30;58.70
13928;DHT22;7036;50.834;4.718;2022-09-13T00:15:20;23.30;58.70
13928;DHT22;7036;50.834;4.718;2022-09-13T00:17:46;23.20;58.60
13928;DHT22;7036;50.834;4.718;2022-09-13T00:20:13;23.30;58.70
13928;DHT22;7036;50.834;4.718;2022-09-13T00:22:40;23.30;58.70
13928;DHT22;7036;50.834;4.718;2022-09-13T00:25:07;23.30;58.70
13928;DHT22;7036;50.834;4.718;2022-09-13T00:27:35;23.20;58.70
13928;DHT22;7036;50.834;4.718;2022-09-13T00:30:04;23.30;58.70
13928;DHT22;7036;50.834;4.718;2022-09-13T00:32:28;23.20;58.70
13928;DHT22;7036;50.834;4.718;2022-09-13T00:34:55;23.20;58.70
13928;DHT22;7036;50.834;4.718;2022-09-13T00:37:22;23.20;58.70
13928;DHT22;7036;50.834;4.718;2022-09-13T00:39:49;23.20;58.70
13928;DHT22;7036;50.834;4.718;2022-09-13T00:42:16;23.20;58.80
13928;DHT22;7036;50.834;4.718;2022-09-13T00:47:18;23.20;58.70
13928;DHT22;7036;50.834;4.718;2022-09-13T00:49:43;23.20;58.70
13928;DHT22;7036;50.834;4.718;2022-09-13T00:52:12;23.20;58.70
13928;DHT22;7036;50.834;4.718;2022-09-13T00:54:39;23.20;58.80
13928;DHT22;7036;50.834;4.718;2022-09-13T00:57:04;23.20;58.80
13928;DHT22;7036;50.834;4.718;2022-09-13T00:59:39;23.20;58.80
13928;DHT22;7036;50.834;4.718;2022-09-13T01:02:03;23.20;58.80
13928;DHT22;7036;50.834;4.718;2022-09-13T01:04:30;23.20;58.80
13928;DHT22;7036;50.834;4.718;2022-09-13T01:06:58;23.20;58.80
13928;DHT22;7036;50.834;4.718;2022-09-13T01:09:24;23.20;58.80
13928;DHT22;7036;50.834;4.718;2022-09-13T01:11:52;23.20;58.80
13928;DHT22;7036;50.834;4.718;2022-09-13T01:14:18;23.20;58.80
13928;DHT22;7036;50.834;4.718;2022-09-13T01:16:45;23.20;58.80
13928;DHT22;7036;50.834;4.718;2022-09-13T01:19:11;23.20;58.80
13928;DHT22;7036;50.834;4.718;2022-09-13T01:35:43;23.20;58.90
13928;DHT22;7036;50.834;4.718;2022-09-13T01:38:13;23.20;58.90
13928;DHT22;7036;50.834;4.718;2022-09-13T01:40:51;23.20;59.00
13928;DHT22;7036;50.834;4.718;2022-09-13T01:48:58;23.20;58.90
13928;DHT22;7036;50.834;4.718;2022-09-13T01:51:26;23.20;58.90
13928;DHT22;7036;50.834;4.718;2022-09-13T01:54:08;23.20;58.90
13928;DHT22;7036;50.834;4.718;2022-09-13T01:56:31;23.20;58.90
13928;DHT22;7036;50.834;4.718;2022-09-13T01:59:09;23.20;58.90
13928;DHT22;7036;50.834;4.718;2022-09-13T02:01:37;23.10;58.90
13928;DHT22;7036;50.834;4.718;2022-09-13T02:04:17;23.20;58.90
13928;DHT22;7036;50.834;4.718;2022-09-13T02:06:51;23.20;58.90
13928;DHT22;7036;50.834;4.718;2022-09-13T02:09:21;23.20;58.90
13928;DHT22;7036;50.834;4.718;2022-09-13T02:11:49;23.20;59.40
13928;DHT22;7036;50.834;4.718;2022-09-13T02:14:15;23.10;58.90
13928;DHT22;7036;50.834;4.718;2022-09-13T02:16:52;23.20;58.90
13928;DHT22;7036;50.834;4.718;2022-09-13T02:19:21;23.20;58.90
13928;DHT22;7036;50.834;4.718;2022-09-13T02:21:45;23.10;58.90
13928;DHT22;7036;50.834;4.718;2022-09-13T02:24:28;23.20;59.10
13928;DHT22;7036;50.834;4.718;2022-09-13T02:26:44;23.10;58.90
13928;DHT22;7036;50.834;4.718;2022-09-13T02:29:12;23.20;58.90
13928;DHT22;7036;50.834;4.718;2022-09-13T02:31:45;23.20;59.00
13928;DHT22;7036;50.834;4.718;2022-09-13T02:34:10;23.10;59.00
13928;DHT22;7036;50.834;4.718;2022-09-13T02:36:35;23.10;58.90
13928;DHT22;7036;50.834;4.718;2022-09-13T02:39:03;23.20;59.00
13928;DHT22;7036;50.834;4.718;2022-09-13T02:54:56;23.10;59.00
13928;DHT22;7036;50.834;4.718;2022-09-13T02:57:30;23.10;59.00
13928;DHT22;7036;50.834;4.718;2022-09-13T02:59:55;23.10;59.00
13928;DHT22;7036;50.834;4.718;2022-09-13T03:02:24;23.10;59.00
13928;DHT22;7036;50.834;4.718;2022-09-13T03:04:49;23.10;59.00
13928;DHT22;7036;50.834;4.718;2022-09-13T03:07:16;23.10;59.00
13928;DHT22;7036;50.834;4.718;2022-09-13T03:10:29;23.10;59.00
13928;DHT22;7036;50.834;4.718;2022-09-13T03:14:47;23.10;59.00
13928;DHT22;7036;50.834;4.718;2022-09-13T03:17:28;23.10;59.00
13928;DHT22;7036;50.834;4.718;2022-09-13T03:25:21;23.10;59.20
13928;DHT22;7036;50.834;4.718;2022-09-13T03:27:51;23.10;59.00
13928;DHT22;7036;50.834;4.718;2022-09-13T03:30:17;23.10;59.00
13928;DHT22;7036;50.834;4.718;2022-09-13T03:33:01;23.10;59.00
13928;DHT22;7036;50.834;4.718;2022-09-13T03:35:50;23.10;59.00
13928;DHT22;7036;50.834;4.718;2022-09-13T03:38:17;23.10;59.00
13928;DHT22;7036;50.834;4.718;2022-09-13T03:40:46;23.00;59.00
13928;DHT22;7036;50.834;4.718;2022-09-13T03:45:59;23.10;59.20
13928;DHT22;7036;50.834;4.718;2022-09-13T03:48:26;23.10;59.20
13928;DHT22;7036;50.834;4.718;2022-09-13T03:50:53;23.00;59.00
13928;DHT22;7036;50.834;4.718;2022-09-13T03:53:22;23.10;59.10
13928;DHT22;7036;50.834;4.718;2022-09-13T03:55:47;23.10;59.10
13928;DHT22;7036;50.834;4.718;2022-09-13T03:58:15;23.10;59.10
13928;DHT22;7036;50.834;4.718;2022-09-13T04:00:42;23.10;59.20
13928;DHT22;7036;50.834;4.718;2022-09-13T04:03:09;23.10;59.20
13928;DHT22;7036;50.834;4.718;2022-09-13T04:05:35;23.00;59.00
13928;DHT22;7036;50.834;4.718;2022-09-13T04:08:03;23.10;59.10
13928;DHT22;7036;50.834;4.718;2022-09-13T04:10:29;23.00;59.10
13928;DHT22;7036;50.834;4.718;2022-09-13T04:12:56;23.00;59.00
13928;DHT22;7036;50.834;4.718;2022-09-13T04:15:23;23.10;59.10
13928;DHT22;7036;50.834;4.718;2022-09-13T04:17:50;23.10;59.10
13928;DHT22;7036;50.834;4.718;2022-09-13T04:20:17;23.10;59.10
13928;DHT22;7036;50.834;4.718;2022-09-13T04:22:49;23.10;59.10
13928;DHT22;7036;50.834;4.718;2022-09-13T04:25:11;23.00;59.10
13928;DHT22;7036;50.834;4.718;2022-09-13T04:27:38;23.00;59.10
13928;DHT22;7036;50.834;4.718;2022-09-13T04:30:05;23.00;59.10
13928;DHT22;7036;50.834;4.718;2022-09-13T04:32:32;23.00;59.30
13928;DHT22;7036;50.834;4.718;2022-09-13T04:34:59;23.00;59.20
13928;DHT22;7036;50.834;4.718;2022-09-13T04:37:26;23.00;59.20
13928;DHT22;7036;50.834;4.718;2022-09-13T04:39:53;23.00;59.20
13928;DHT22;7036;50.834;4.718;2022-09-13T04:42:20;23.00;59.20
13928;DHT22;7036;50.834;4.718;2022-09-13T04:44:47;23.00;59.20
13928;DHT22;7036;50.834;4.718;2022-09-13T04:47:14;23.00;59.20
13928;DHT22;7036;50.834;4.718;2022-09-13T04:49:40;23.10;59.20
13928;DHT22;7036;50.834;4.718;2022-09-13T04:52:07;23.00;59.20
13928;DHT22;7036;50.834;4.718;2022-09-13T04:54:34;23.00;59.20
13928;DHT22;7036;50.834;4.718;2022-09-13T04:57:01;23.00;59.20
13928;DHT22;7036;50.834;4.718;2022-09-13T04:59:28;23.00;59.20
13928;DHT22;7036;50.834;4.718;2022-09-13T05:01:55;23.00;59.20
13928;DHT22;7036;50.834;4.718;2022-09-13T05:04:22;23.00;59.30
13928;DHT22;7036;50.834;4.718;2022-09-13T05:06:49;23.00;59.20
13928;DHT22;7036;50.834;4.718;2022-09-13T05:09:16;23.00;59.20
13928;DHT22;7036;50.834;4.718;2022-09-13T05:11:42;23.00;59.20
13928;DHT22;7036;50.834;4.718;2022-09-13T05:14:10;23.00;59.20
13928;DHT22;7036;50.834;4.718;2022-09-13T05:16:37;23.00;59.30
13928;DHT22;7036;50.834;4.718;2022-09-13T05:19:04;23.00;59.20
13928;DHT22;7036;50.834;4.718;2022-09-13T05:21:31;23.00;59.30
13928;DHT22;7036;50.834;4.718;2022-09-13T05:24:05;23.00;59.30
13928;DHT22;7036;50.834;4.718;2022-09-13T05:26:32;23.00;59.30
13928;DHT22;7036;50.834;4.718;2022-09-13T05:28:59;23.00;59.30
13928;DHT22;7036;50.834;4.718;2022-09-13T05:31:29;23.00;59.30
13928;DHT22;7036;50.834;4.718;2022-09-13T05:34:00;23.00;59.30
13928;DHT22;7036;50.834;4.718;2022-09-13T05:36:26;23.00;59.30
13928;DHT22;7036;50.834;4.718;2022-09-13T05:38:53;23.00;59.30
13928;DHT22;7036;50.834;4.718;2022-09-13T05:41:19;23.00;59.30
13928;DHT22;7036;50.834;4.718;2022-09-13T05:43:46;23.00;59.30
13928;DHT22;7036;50.834;4.718;2022-09-13T05:46:17;23.00;59.30
13928;DHT22;7036;50.834;4.718;2022-09-13T05:48:43;23.00;59.30
13928;DHT22;7036;50.834;4.718;2022-09-13T05:51:11;23.00;59.30
13928;DHT22;7036;50.834;4.718;2022-09-13T05:53:37;23.00;59.30
13928;DHT22;7036;50.834;4.718;2022-09-13T05:56:04;23.00;59.30
13928;DHT22;7036;50.834;4.718;2022-09-13T05:58:31;23.00;59.30
13928;DHT22;7036;50.834;4.718;2022-09-13T06:00:57;23.00;59.30
13928;DHT22;7036;50.834;4.718;2022-09-13T06:03:24;23.00;59.30
13928;DHT22;7036;50.834;4.718;2022-09-13T06:05:57;23.00;59.30
13928;DHT22;7036;50.834;4.718;2022-09-13T06:08:24;23.00;59.40
13928;DHT22;7036;50.834;4.718;2022-09-13T06:10:57;23.00;59.40
13928;DHT22;7036;50.834;4.718;2022-09-13T06:13:23;23.00;59.30
13928;DHT22;7036;50.834;4.718;2022-09-13T06:15:50;23.00;59.30
13928;DHT22;7036;50.834;4.718;2022-09-13T06:18:17;23.00;59.40
13928;DHT22;7036;50.834;4.718;2022-09-13T06:20:44;23.00;59.40
13928;DHT22;7036;50.834;4.718;2022-09-13T06:23:11;23.00;59.50
13928;DHT22;7036;50.834;4.718;2022-09-13T06:25:38;23.00;59.40
13928;DHT22;7036;50.834;4.718;2022-09-13T06:28:05;23.00;59.40
13928;DHT22;7036;50.834;4.718;2022-09-13T06:30:31;23.00;59.40
13928;DHT22;7036;50.834;4.718;2022-09-13T06:32:58;23.00;59.50
13928;DHT22;7036;50.834;4.718;2022-09-13T06:35:25;23.00;59.40
13928;DHT22;7036;50.834;4.718;2022-09-13T06:37:55;23.00;59.40
13928;DHT22;7036;50.834;4.718;2022-09-13T06:40:22;23.00;59.40
13928;DHT22;7036;50.834;4.718;2022-09-13T06:42:48;23.00;59.40
13928;DHT22;7036;50.834;4.718;2022-09-13T06:45:15;23.00;59.50
13928;DHT22;7036;50.834;4.718;2022-09-13T06:47:42;23.00;59.40
13928;DHT22;7036;50.834;4.718;2022-09-13T06:50:09;23.00;59.50
13928;DHT22;7036;50.834;4.718;2022-09-13T06:52:37;23.00;60.30
13928;DHT22;7036;50.834;4.718;2022-09-13T06:55:04;23.00;59.50
13928;DHT22;7036;50.834;4.718;2022-09-13T06:57:31;23.00;59.50
13928;DHT22;7036;50.834;4.718;2022-09-13T06:59:58;23.00;59.50
13928;DHT22;7036;50.834;4.718;2022-09-13T07:02:25;23.00;59.50
13928;DHT22;7036;50.834;4.718;2022-09-13T07:04:51;23.00;59.50
13928;DHT22;7036;50.834;4.718;2022-09-13T07:07:18;23.00;59.50
13928;DHT22;7036;50.834;4.718;2022-09-13T07:09:46;23.00;59.40
13928;DHT22;7036;50.834;4.718;2022-09-13T07:12:13;23.00;59.40
13928;DHT22;7036;50.834;4.718;2022-09-13T07:14:40;23.00;59.40
13928;DHT22;7036;50.834;4.718;2022-09-13T07:17:07;23.00;59.40
13928;DHT22;7036;50.834;4.718;2022-09-13T07:19:33;23.00;59.50
13928;DHT22;7036;50.834;4.718;2022-09-13T07:22:00;23.00;59.50
13928;DHT22;7036;50.834;4.718;2022-09-13T07:24:27;23.00;59.40
13928;DHT22;7036;50.834;4.718;2022-09-13T07:26:54;23.10;59.40
13928;DHT22;7036;50.834;4.718;2022-09-13T07:29:21;23.00;59.40
13928;DHT22;7036;50.834;4.718;2022-09-13T07:31:51;23.10;59.50
13928;DHT22;7036;50.834;4.718;2022-09-13T07:34:19;23.10;59.60
13928;DHT22;7036;50.834;4.718;2022-09-13T07:36:45;23.10;59.60
13928;DHT22;7036;50.834;4.718;2022-09-13T07:39:15;23.10;59.60
13928;DHT22;7036;50.834;4.718;2022-09-13T07:41:41;23.10;59.70
13928;DHT22;7036;50.834;4.718;2022-09-13T07:44:11;23.10;60.40
13928;DHT22;7036;50.834;4.718;2022-09-13T07:46:38;23.10;61.00
13928;DHT22;7036;50.834;4.718;2022-09-13T07:49:05;23.10;60.80
13928;DHT22;7036;50.834;4.718;2022-09-13T07:51:33;23.20;61.20
13928;DHT22;7036;50.834;4.718;2022-09-13T07:54:00;23.10;60.90
13928;DHT22;7036;50.834;4.718;2022-09-13T07:56:28;23.20;61.00
13928;DHT22;7036;50.834;4.718;2022-09-13T07:58:54;23.20;60.80
13928;DHT22;7036;50.834;4.718;2022-09-13T08:01:22;23.20;60.60
13928;DHT22;7036;50.834;4.718;2022-09-13T08:03:55;23.20;60.60
13928;DHT22;7036;50.834;4.718;2022-09-13T08:06:21;23.20;60.60
13928;DHT22;7036;50.834;4.718;2022-09-13T08:08:48;23.20;60.60
13928;DHT22;7036;50.834;4.718;2022-09-13T08:11:21;23.20;61.20
13928;DHT22;7036;50.834;4.718;2022-09-13T08:13:45;23.20;61.30
13928;DHT22;7036;50.834;4.718;2022-09-13T08:16:12;23.20;61.20
13928;DHT22;7036;50.834;4.718;2022-09-13T08:18:45;23.20;61.30
13928;DHT22;7036;50.834;4.718;2022-09-13T08:21:11;23.20;61.30
13928;DHT22;7036;50.834;4.718;2022-09-13T08:23:38;23.30;61.20
13928;DHT22;7036;50.834;4.718;2022-09-13T08:26:06;23.30;61.00
13928;DHT22;7036;50.834;4.718;2022-09-13T08:28:33;23.30;61.20
13928;DHT22;7036;50.834;4.718;2022-09-13T08:31:06;23.30;61.20
13928;DHT22;7036;50.834;4.718;2022-09-13T08:33:29;23.30;61.30
13928;DHT22;7036;50.834;4.718;2022-09-13T08:35:56;23.30;61.10
13928;DHT22;7036;50.834;4.718;2022-09-13T08:38:23;23.40;61.20
13928;DHT22;7036;50.834;4.718;2022-09-13T08:40:53;23.40;61.20
13928;DHT22;7036;50.834;4.718;2022-09-13T08:43:47;23.40;61.10
13928;DHT22;7036;50.834;4.718;2022-09-13T08:46:42;23.40;61.10
13928;DHT22;7036;50.834;4.718;2022-09-13T08:49:25;23.30;61.60
13928;DHT22;7036;50.834;4.718;2022-09-13T08:51:41;23.30;62.00
13928;DHT22;7036;50.834;4.718;2022-09-13T08:54:10;23.30;62.30
13928;DHT22;7036;50.834;4.718;2022-09-13T08:56:49;23.40;63.40
13928;DHT22;7036;50.834;4.718;2022-09-13T08:59:15;23.40;62.80
13928;DHT22;7036;50.834;4.718;2022-09-13T09:01:49;23.40;62.90
13928;DHT22;7036;50.834;4.718;2022-09-13T09:06:43;23.40;63.00
13928;DHT22;7036;50.834;4.718;2022-09-13T09:09:17;23.50;63.00
13928;DHT22;7036;50.834;4.718;2022-09-13T09:16:56;23.40;62.70
13928;DHT22;7036;50.834;4.718;2022-09-13T09:19:23;23.40;62.60
13928;DHT22;7036;50.834;4.718;2022-09-13T09:21:49;23.50;62.80
13928;DHT22;7036;50.834;4.718;2022-09-13T09:24:18;23.40;62.70
13928;DHT22;7036;50.834;4.718;2022-09-13T09:26:43;23.50;62.80
13928;DHT22;7036;50.834;4.718;2022-09-13T09:29:14;23.50;62.70
13928;DHT22;7036;50.834;4.718;2022-09-13T09:37:20;23.50;62.30
13928;DHT22;7036;50.834;4.718;2022-09-13T09:39:49;23.50;62.60
13928;DHT22;7036;50.834;4.718;2022-09-13T09:42:23;23.50;62.50
13928;DHT22;7036;50.834;4.718;2022-09-13T09:45:05;23.50;62.40
13928;DHT22;7036;50.834;4.718;2022-09-13T09:47:33;23.50;62.30
13928;DHT22;7036;50.834;4.718;2022-09-13T09:50:10;23.50;62.40
13928;DHT22;7036;50.834;4.718;2022-09-13T09:55:10;23.60;62.40
13928;DHT22;7036;50.834;4.718;2022-09-13T09:57:56;23.50;62.30
13928;DHT22;7036;50.834;4.718;2022-09-13T10:00:23;23.60;62.30
13928;DHT22;7036;50.834;4.718;2022-09-13T10:02:50;23.50;62.30
13928;DHT22;7036;50.834;4.718;2022-09-13T10:05:18;23.60;62.10
13928;DHT22;7036;50.834;4.718;2022-09-13T10:07:52;23.60;62.00
13928;DHT22;7036;50.834;4.718;2022-09-13T10:10:22;23.60;62.10
13928;DHT22;7036;50.834;4.718;2022-09-13T10:12:51;23.60;62.00
13928;DHT22;7036;50.834;4.718;2022-09-13T10:15:18;23.60;62.00
13928;DHT22;7036;50.834;4.718;2022-09-13T10:17:59;23.60;61.90
13928;DHT22;7036;50.834;4.718;2022-09-13T10:22:40;23.60;61.90
13928;DHT22;7036;50.834;4.718;2022-09-13T10:25:22;23.60;62.10
13928;DHT22;7036;50.834;4.718;2022-09-13T10:27:49;23.60;62.10
13928;DHT22;7036;50.834;4.718;2022-09-13T10:30:41;23.70;62.60
13928;DHT22;7036;50.834;4.718;2022-09-13T10:33:24;23.70;62.80
13928;DHT22;7036;50.834;4.718;2022-09-13T10:35:49;23.60;62.80
13928;DHT22;7036;50.834;4.718;2022-09-13T10:38:20;23.70;63.60
13928;DHT22;7036;50.834;4.718;2022-09-13T10:40:43;23.70;63.40
13928;DHT22;7036;50.834;4.718;2022-09-13T10:43:13;23.70;63.50
13928;DHT22;7036;50.834;4.718;2022-09-13T10:45:37;23.70;63.70
13928;DHT22;7036;50.834;4.718;2022-09-13T10:48:04;23.70;63.70
13928;DHT22;7036;50.834;4.718;2022-09-13T10:50:31;23.70;63.70
13928;DHT22;7036;50.834;4.718;2022-09-13T10:52:58;23.70;64.00
13928;DHT22;7036;50.834;4.718;2022-09-13T10:55:29;23.70;64.10
13928;DHT22;7036;50.834;4.718;2022-09-13T10:57:55;23.70;63.80
13928;DHT22;7036;50.834;4.718;2022-09-13T11:00:22;23.70;64.20
13928;DHT22;7036;50.834;4.718;2022-09-13T11:02:58;23.70;63.80
13928;DHT22;7036;50.834;4.718;2022-09-13T11:05:25;23.70;64.00
13928;DHT22;7036;50.834;4.718;2022-09-13T11:16:17;23.70;64.40
13928;DHT22;7036;50.834;4.718;2022-09-13T11:18:44;23.70;64.70
13928;DHT22;7036;50.834;4.718;2022-09-13T11:24:02;23.70;64.20
13928;DHT22;7036;50.834;4.718;2022-09-13T11:26:35;23.70;63.90
13928;DHT22;7036;50.834;4.718;2022-09-13T11:31:42;23.70;63.70
13928;DHT22;7036;50.834;4.718;2022-09-13T11:37:02;23.70;63.60
13928;DHT22;7036;50.834;4.718;2022-09-13T11:39:31;23.70;63.50
13928;DHT22;7036;50.834;4.718;2022-09-13T11:42:12;23.70;63.40
13928;DHT22;7036;50.834;4.718;2022-09-13T11:47:32;23.70;63.30
13928;DHT22;7036;50.834;4.718;2022-09-13T11:50:03;23.70;63.20
13928;DHT22;7036;50.834;4.718;2022-09-13T11:57:33;23.70;63.00
13928;DHT22;7036;50.834;4.718;2022-09-13T12:00:08;23.70;63.00
13928;DHT22;7036;50.834;4.718;2022-09-13T12:02:28;23.80;63.00
13928;DHT22;7036;50.834;4.718;2022-09-13T12:05:04;23.80;63.00
13928;DHT22;7036;50.834;4.718;2022-09-13T12:07:46;23.70;63.00
13928;DHT22;7036;50.834;4.718;2022-09-13T12:10:12;23.80;62.90
13928;DHT22;7036;50.834;4.718;2022-09-13T12:12:31;23.70;62.80
13928;DHT22;7036;50.834;4.718;2022-09-13T12:15:02;23.80;63.40
13928;DHT22;7036;50.834;4.718;2022-09-13T12:19:56;23.70;62.60
13928;DHT22;7036;50.834;4.718;2022-09-13T12:22:23;23.80;62.00
13928;DHT22;7036;50.834;4.718;2022-09-13T12:24:55;23.80;62.60
13928;DHT22;7036;50.834;4.718;2022-09-13T12:30:06;23.80;62.40
13928;DHT22;7036;50.834;4.718;2022-09-13T12:32:32;23.80;62.30
13928;DHT22;7036;50.834;4.718;2022-09-13T12:35:06;23.80;62.10
13928;DHT22;7036;50.834;4.718;2022-09-13T12:38:03;23.80;62.00
13928;DHT22;7036;50.834;4.718;2022-09-13T12:40:44;23.80;62.10
13928;DHT22;7036;50.834;4.718;2022-09-13T12:57:55;23.80;62.90
13928;DHT22;7036;50.834;4.718;2022-09-13T13:00:34;23.90;63.20
13928;DHT22;7036;50.834;4.718;2022-09-13T13:05:37;23.90;63.60
13928;DHT22;7036;50.834;4.718;2022-09-13T13:11:05;23.90;64.10
13928;DHT22;7036;50.834;4.718;2022-09-13T13:16:05;23.80;63.10
13928;DHT22;7036;50.834;4.718;2022-09-13T13:18:46;23.90;63.20
13928;DHT22;7036;50.834;4.718;2022-09-13T13:21:35;23.80;63.10
13928;DHT22;7036;50.834;4.718;2022-09-13T13:26:53;23.80;63.00
13928;DHT22;7036;50.834;4.718;2022-09-13T13:29:22;23.80;63.10
13928;DHT22;7036;50.834;4.718;2022-09-13T13:34:40;23.90;63.20
13928;DHT22;7036;50.834;4.718;2022-09-13T13:39:42;23.80;63.30
13928;DHT22;7036;50.834;4.718;2022-09-13T13:57:31;23.80;63.40
13928;DHT22;7036;50.834;4.718;2022-09-13T14:16:56;23.80;63.20
13928;DHT22;7036;50.834;4.718;2022-09-13T14:19:20;23.80;63.20
13928;DHT22;7036;50.834;4.718;2022-09-13T14:21:46;23.80;63.20
13928;DHT22;7036;50.834;4.718;2022-09-13T14:24:17;23.80;63.30
13928;DHT22;7036;50.834;4.718;2022-09-13T14:26:46;23.80;63.40
13928;DHT22;7036;50.834;4.718;2022-09-13T14:29:15;23.80;63.50
13928;DHT22;7036;50.834;4.718;2022-09-13T14:31:40;23.80;63.50
13928;DHT22;7036;50.834;4.718;2022-09-13T14:34:16;23.80;63.50
13928;DHT22;7036;50.834;4.718;2022-09-13T14:36:33;23.80;63.90
13928;DHT22;7036;50.834;4.718;2022-09-13T14:39:00;23.80;63.50
13928;DHT22;7036;50.834;4.718;2022-09-13T14:41:35;23.80;63.40
13928;DHT22;7036;50.834;4.718;2022-09-13T14:44:22;23.80;63.50
13928;DHT22;7036;50.834;4.718;2022-09-13T14:46:45;23.80;63.30
13928;DHT22;7036;50.834;4.718;2022-09-13T14:49:19;23.80;63.40
13928;DHT22;7036;50.834;4.718;2022-09-13T14:51:45;23.80;63.40
13928;DHT22;7036;50.834;4.718;2022-09-13T14:54:32;23.80;63.50
13928;DHT22;7036;50.834;4.718;2022-09-13T14:56:57;23.80;63.70
13928;DHT22;7036;50.834;4.718;2022-09-13T14:59:30;23.80;63.60
13928;DHT22;7036;50.834;4.718;2022-09-13T15:01:54;23.80;63.60
13928;DHT22;7036;50.834;4.718;2022-09-13T15:04:21;23.80;63.90
13928;DHT22;7036;50.834;4.718;2022-09-13T15:06:48;23.80;63.70
13928;DHT22;7036;50.834;4.718;2022-09-13T15:09:21;23.80;63.50
13928;DHT22;7036;50.834;4.718;2022-09-13T15:12:03;23.80;63.50
13928;DHT22;7036;50.834;4.718;2022-09-13T15:16:48;23.80;63.50
13928;DHT22;7036;50.834;4.718;2022-09-13T15:20:01;23.80;63.50
13928;DHT22;7036;50.834;4.718;2022-09-13T15:21:43;23.80;63.40
13928;DHT22;7036;50.834;4.718;2022-09-13T15:24:27;23.90;63.50
13928;DHT22;7036;50.834;4.718;2022-09-13T15:26:59;23.80;63.60
13928;DHT22;7036;50.834;4.718;2022-09-13T15:29:17;23.80;64.10
13928;DHT22;7036;50.834;4.718;2022-09-13T15:31:43;23.80;64.30
13928;DHT22;7036;50.834;4.718;2022-09-13T15:34:19;23.80;64.60
13928;DHT22;7036;50.834;4.718;2022-09-13T15:36:44;23.80;64.40
13928;DHT22;7036;50.834;4.718;2022-09-13T15:41:38;23.80;64.20
13928;DHT22;7036;50.834;4.718;2022-09-13T15:44:05;23.80;64.30
13928;DHT22;7036;50.834;4.718;2022-09-13T15:46:31;23.80;65.10
13928;DHT22;7036;50.834;4.718;2022-09-13T15:49:00;23.80;64.30
13928;DHT22;7036;50.834;4.718;2022-09-13T15:51:25;23.80;64.40
13928;DHT22;7036;50.834;4.718;2022-09-13T15:53:53;23.80;64.30
13928;DHT22;7036;50.834;4.718;2022-09-13T15:56:27;23.80;64.30
13928;DHT22;7036;50.834;4.718;2022-09-13T15:58:52;23.80;64.30
13928;DHT22;7036;50.834;4.718;2022-09-13T16:01:19;23.80;64.30
13928;DHT22;7036;50.834;4.718;2022-09-13T16:03:46;23.80;63.60
13928;DHT22;7036;50.834;4.718;2022-09-13T16:06:13;23.80;64.30
13928;DHT22;7036;50.834;4.718;2022-09-13T16:08:40;23.80;64.30
13928;DHT22;7036;50.834;4.718;2022-09-13T16:11:07;23.70;64.30
13928;DHT22;7036;50.834;4.718;2022-09-13T16:13:34;23.80;64.30
13928;DHT22;7036;50.834;4.718;2022-09-13T16:16:03;23.70;64.30
13928;DHT22;7036;50.834;4.718;2022-09-13T16:18:30;23.70;64.30
13928;DHT22;7036;50.834;4.718;2022-09-13T16:20:57;23.80;64.20
13928;DHT22;7036;50.834;4.718;2022-09-13T16:23:24;23.80;64.30
13928;DHT22;7036;50.834;4.718;2022-09-13T16:25:54;23.80;64.40
13928;DHT22;7036;50.834;4.718;2022-09-13T16:28:19;23.70;64.20
13928;DHT22;7036;50.834;4.718;2022-09-13T16:30:46;23.70;64.30
13928;DHT22;7036;50.834;4.718;2022-09-13T16:33:13;23.70;64.20
13928;DHT22;7036;50.834;4.718;2022-09-13T16:35:40;23.70;64.30
13928;DHT22;7036;50.834;4.718;2022-09-13T16:38:08;23.70;64.40
13928;DHT22;7036;50.834;4.718;2022-09-13T16:40:37;23.80;64.50
13928;DHT22;7036;50.834;4.718;2022-09-13T16:43:02;23.70;64.40
13928;DHT22;7036;50.834;4.718;2022-09-13T16:45:28;23.70;64.30
13928;DHT22;7036;50.834;4.718;2022-09-13T16:47:55;23.70;64.30
13928;DHT22;7036;50.834;4.718;2022-09-13T16:50:23;23.70;63.90
13928;DHT22;7036;50.834;4.718;2022-09-13T16:52:50;23.70;64.60
13928;DHT22;7036;50.834;4.718;2022-09-13T16:55:18;23.70;64.70
13928;DHT22;7036;50.834;4.718;2022-09-13T16:57:44;23.70;64.60
13928;DHT22;7036;50.834;4.718;2022-09-13T17:00:12;23.70;64.40
13928;DHT22;7036;50.834;4.718;2022-09-13T17:02:38;23.80;64.60
13928;DHT22;7036;50.834;4.718;2022-09-13T17:05:05;23.70;64.40
13928;DHT22;7036;50.834;4.718;2022-09-13T17:07:33;23.80;64.60
13928;DHT22;7036;50.834;4.718;2022-09-13T17:09:59;23.70;64.80
13928;DHT22;7036;50.834;4.718;2022-09-13T17:12:26;23.80;64.60
13928;DHT22;7036;50.834;4.718;2022-09-13T17:14:53;23.80;64.60
13928;DHT22;7036;50.834;4.718;2022-09-13T17:17:20;23.80;65.10
13928;DHT22;7036;50.834;4.718;2022-09-13T17:19:47;23.80;65.20
13928;DHT22;7036;50.834;4.718;2022-09-13T17:22:14;23.80;65.90
13928;DHT22;7036;50.834;4.718;2022-09-13T17:24:41;23.80;65.90
13928;DHT22;7036;50.834;4.718;2022-09-13T17:27:09;23.80;65.80
13928;DHT22;7036;50.834;4.718;2022-09-13T17:29:35;23.80;65.70
13928;DHT22;7036;50.834;4.718;2022-09-13T17:32:03;23.90;65.60
13928;DHT22;7036;50.834;4.718;2022-09-13T17:34:30;23.90;65.40
13928;DHT22;7036;50.834;4.718;2022-09-13T17:36:57;23.90;65.50
13928;DHT22;7036;50.834;4.718;2022-09-13T17:39:24;23.90;65.50
13928;DHT22;7036;50.834;4.718;2022-09-13T17:41:51;23.90;65.40
13928;DHT22;7036;50.834;4.718;2022-09-13T17:44:18;23.80;65.30
13928;DHT22;7036;50.834;4.718;2022-09-13T17:46:45;23.80;65.20
13928;DHT22;7036;50.834;4.718;2022-09-13T17:49:12;23.80;65.30
13928;DHT22;7036;50.834;4.718;2022-09-13T17:51:39;23.80;65.30
13928;DHT22;7036;50.834;4.718;2022-09-13T17:54:06;23.80;65.30
13928;DHT22;7036;50.834;4.718;2022-09-13T17:56:35;23.80;65.00
13928;DHT22;7036;50.834;4.718;2022-09-13T17:59:12;23.80;65.40
13928;DHT22;7036;50.834;4.718;2022-09-13T18:01:39;23.80;65.30
13928;DHT22;7036;50.834;4.718;2022-09-13T18:04:05;23.80;65.20
13928;DHT22;7036;50.834;4.718;2022-09-13T18:06:32;23.90;65.50
13928;DHT22;7036;50.834;4.718;2022-09-13T18:08:59;23.80;65.60
13928;DHT22;7036;50.834;4.718;2022-09-13T18:11:26;23.80;65.70
13928;DHT22;7036;50.834;4.718;2022-09-13T18:13:53;23.80;65.40
13928;DHT22;7036;50.834;4.718;2022-09-13T18:16:23;23.80;65.40
13928;DHT22;7036;50.834;4.718;2022-09-13T18:18:48;23.80;65.60
13928;DHT22;7036;50.834;4.718;2022-09-13T18:21:14;23.80;65.40
13928;DHT22;7036;50.834;4.718;2022-09-13T18:23:41;23.80;65.50
13928;DHT22;7036;50.834;4.718;2022-09-13T18:26:12;23.80;65.50
13928;DHT22;7036;50.834;4.718;2022-09-13T18:28:35;23.80;65.60
13928;DHT22;7036;50.834;4.718;2022-09-13T18:31:03;23.80;65.50
13928;DHT22;7036;50.834;4.718;2022-09-13T18:33:29;23.80;65.50
13928;DHT22;7036;50.834;4.718;2022-09-13T18:35:56;23.70;65.40